sensor_id;sensor_type;location;lat;lon;timestamp;P1;durP1;ratioP1;P2;durP2;ratioP2
7253;SDS011;4060;49.186;9.226;2023-07-28T00:01:21;2.88;;;2.67;;
7253;SDS011;4060;49.186;9.226;2023-07-28T00:03:50;3.47;;;2.45;;
7253;SDS011;4060;49.186;9.226;2023-07-28T00:06:21;3.83;;;3.08;;
7253;SDS011;4060;49.186;9.226;2023-07-28T00:08:51;3.10;;;2.80;;
7253;SDS011;4060;49.186;9.226;2023-07-28T00:11:23;3.33;;;3.03;;
7253;SDS011;4060;49.186;9.226;2023-07-28T00:13:53;2.97;;;2.70;;
7253;SDS011;4060;49.186;9.226;2023-07-28T00:16:23;4.75;;;3.00;;
7253;SDS011;4060;49.186;9.226;2023-07-28T00:18:53;3.25;;;2.58;;
7253;SDS011;4060;49.186;9.226;2023-07-28T00:21:24;3.30;;;2.88;;
7253;SDS011;4060;49.186;9.226;2023-07-28T00:23:55;4.07;;;2.83;;
7253;SDS011;4060;49.186;9.226;2023-07-28T00:26:29;2.55;;;2.35;;
7253;SDS011;4060;49.186;9.226;2023-07-28T00:29:01;2.60;;;2.40;;
7253;SDS011;4060;49.186;9.226;2023-07-28T00:31:34;3.22;;;2.72;;
7253;SDS011;4060;49.186;9.226;2023-07-28T00:34:04;3.33;;;3.03;;
7253;SDS011;4060;49.186;9.226;2023-07-28T00:36:34;3.00;;;2.70;;
7253;SDS011;4060;49.186;9.226;2023-07-28T00:39:03;2.70;;;2.50;;
7253;SDS011;4060;49.186;9.226;2023-07-28T00:41:36;3.03;;;2.72;;
7253;SDS011;4060;49.186;9.226;2023-07-28T00:44:06;3.45;;;2.78;;
7253;SDS011;4060;49.186;9.226;2023-07-28T00:46:36;2.83;;;2.28;;
7253;SDS011;4060;49.186;9.226;2023-07-28T00:49:06;2.95;;;2.72;;
7253;SDS011;4060;49.186;9.226;2023-07-28T00:51:39;3.28;;;2.97;;
7253;SDS011;4060;49.186;9.226;2023-07-28T00:54:09;3.22;;;2.85;;
7253;SDS011;4060;49.186;9.226;2023-07-28T00:56:41;4.10;;;2.70;;
7253;SDS011;4060;49.186;9.226;2023-07-28T00:59:11;3.00;;;2.70;;
7253;SDS011;4060;49.186;9.226;2023-07-28T01:01:41;3.35;;;2.70;;
7253;SDS011;4060;49.186;9.226;2023-07-28T01:04:11;2.80;;;2.60;;
7253;SDS011;4060;49.186;9.226;2023-07-28T01:06:44;2.58;;;2.38;;
7253;SDS011;4060;49.186;9.226;2023-07-28T01:09:21;3.13;;;2.85;;
7253;SDS011;4060;49.186;9.226;2023-07-28T01:12:01;5.18;;;2.83;;
7253;SDS011;4060;49.186;9.226;2023-07-28T01:14:37;3.10;;;2.67;;
7253;SDS011;4060;49.186;9.226;2023-07-28T01:17:07;2.85;;;2.55;;
7253;SDS011;4060;49.186;9.226;2023-07-28T01:19:37;3.42;;;2.63;;
7253;SDS011;4060;49.186;9.226;2023-07-28T01:22:20;3.63;;;2.63;;
7253;SDS011;4060;49.186;9.226;2023-07-28T01:25:36;3.58;;;2.88;;
7253;SDS011;4060;49.186;9.226;2023-07-28T01:28:27;2.70;;;2.50;;
7253;SDS011;4060;49.186;9.226;2023-07-28T01:30:57;2.88;;;2.55;;
7253;SDS011;4060;49.186;9.226;2023-07-28T01:33:28;2.75;;;2.40;;
7253;SDS011;4060;49.186;9.226;2023-07-28T01:35:58;3.55;;;2.95;;
7253;SDS011;4060;49.186;9.226;2023-07-28T01:38:28;3.38;;;3.08;;
7253;SDS011;4060;49.186;9.226;2023-07-28T01:40:57;3.28;;;2.97;;
7253;SDS011;4060;49.186;9.226;2023-07-28T01:43:31;3.05;;;2.60;;
7253;SDS011;4060;49.186;9.226;2023-07-28T01:46:01;2.72;;;2.53;;
7253;SDS011;4060;49.186;9.226;2023-07-28T01:48:31;6.93;;;3.15;;
7253;SDS011;4060;49.186;9.226;2023-07-28T01:51:00;3.40;;;2.67;;
7253;SDS011;4060;49.186;9.226;2023-07-28T01:53:55;4.63;;;3.22;;
7253;SDS011;4060;49.186;9.226;2023-07-28T01:56:26;3.03;;;2.83;;
7253;SDS011;4060;49.186;9.226;2023-07-28T01:58:59;3.15;;;2.90;;
7253;SDS011;4060;49.186;9.226;2023-07-28T02:01:29;2.95;;;2.45;;
7253;SDS011;4060;49.186;9.226;2023-07-28T02:03:59;2.92;;;2.72;;
7253;SDS011;4060;49.186;9.226;2023-07-28T02:06:29;3.17;;;2.88;;
7253;SDS011;4060;49.186;9.226;2023-07-28T02:09:00;3.10;;;2.85;;
7253;SDS011;4060;49.186;9.226;2023-07-28T02:11:30;3.65;;;2.85;;
7253;SDS011;4060;49.186;9.226;2023-07-28T02:14:02;3.63;;;3.33;;
7253;SDS011;4060;49.186;9.226;2023-07-28T02:16:31;3.45;;;3.15;;
7253;SDS011;4060;49.186;9.226;2023-07-28T02:19:01;3.33;;;2.55;;
7253;SDS011;4060;49.186;9.226;2023-07-28T02:21:30;3.28;;;2.97;;
7253;SDS011;4060;49.186;9.226;2023-07-28T02:24:00;3.80;;;3.50;;
7253;SDS011;4060;49.186;9.226;2023-07-28T02:26:30;3.95;;;3.08;;
7253;SDS011;4060;49.186;9.226;2023-07-28T02:29:02;3.40;;;2.95;;
7253;SDS011;4060;49.186;9.226;2023-07-28T02:31:31;3.38;;;3.08;;
7253;SDS011;4060;49.186;9.226;2023-07-28T02:34:01;4.32;;;3.38;;
7253;SDS011;4060;49.186;9.226;2023-07-28T02:36:30;4.53;;;2.95;;
7253;SDS011;4060;49.186;9.226;2023-07-28T02:39:00;3.25;;;2.88;;
7253;SDS011;4060;49.186;9.226;2023-07-28T02:41:30;3.70;;;3.40;;
7253;SDS011;4060;49.186;9.226;2023-07-28T02:44:02;2.97;;;2.60;;
7253;SDS011;4060;49.186;9.226;2023-07-28T02:46:33;3.17;;;2.88;;
7253;SDS011;4060;49.186;9.226;2023-07-28T02:49:04;2.90;;;2.60;;
7253;SDS011;4060;49.186;9.226;2023-07-28T02:51:34;3.97;;;2.83;;
7253;SDS011;4060;49.186;9.226;2023-07-28T02:54:05;2.85;;;2.65;;
7253;SDS011;4060;49.186;9.226;2023-07-28T02:56:36;2.85;;;2.50;;
7253;SDS011;4060;49.186;9.226;2023-07-28T02:59:08;2.92;;;2.63;;
7253;SDS011;4060;49.186;9.226;2023-07-28T03:01:38;3.08;;;2.72;;
7253;SDS011;4060;49.186;9.226;2023-07-28T03:04:08;3.15;;;2.50;;
7253;SDS011;4060;49.186;9.226;2023-07-28T03:06:39;3.33;;;3.08;;
7253;SDS011;4060;49.186;9.226;2023-07-28T03:09:09;3.55;;;2.75;;
7253;SDS011;4060;49.186;9.226;2023-07-28T03:11:39;3.42;;;2.90;;
7253;SDS011;4060;49.186;9.226;2023-07-28T03:14:12;4.35;;;2.85;;
7253;SDS011;4060;49.186;9.226;2023-07-28T03:16:41;3.20;;;2.90;;
7253;SDS011;4060;49.186;9.226;2023-07-28T03:19:12;3.67;;;3.38;;
7253;SDS011;4060;49.186;9.226;2023-07-28T03:21:44;3.20;;;2.90;;
7253;SDS011;4060;49.186;9.226;2023-07-28T03:24:14;3.85;;;3.45;;
7253;SDS011;4060;49.186;9.226;2023-07-28T03:26:46;4.10;;;3.30;;
7253;SDS011;4060;49.186;9.226;2023-07-28T03:29:21;3.30;;;3.00;;
7253;SDS011;4060;49.186;9.226;2023-07-28T03:31:53;3.50;;;3.20;;
7253;SDS011;4060;49.186;9.226;2023-07-28T03:34:23;3.55;;;3.25;;
7253;SDS011;4060;49.186;9.226;2023-07-28T03:36:53;3.97;;;3.40;;
7253;SDS011;4060;49.186;9.226;2023-07-28T03:39:23;3.83;;;2.90;;
7253;SDS011;4060;49.186;9.226;2023-07-28T03:41:53;3.92;;;3.60;;
7253;SDS011;4060;49.186;9.226;2023-07-28T03:44:25;4.00;;;3.55;;
7253;SDS011;4060;49.186;9.226;2023-07-28T03:46:56;4.53;;;4.13;;
7253;SDS011;4060;49.186;9.226;2023-07-28T03:49:26;4.30;;;3.90;;
7253;SDS011;4060;49.186;9.226;2023-07-28T03:51:55;4.13;;;3.70;;
7253;SDS011;4060;49.186;9.226;2023-07-28T03:54:25;4.55;;;3.72;;
7253;SDS011;4060;49.186;9.226;2023-07-28T03:56:54;3.80;;;3.50;;
7253;SDS011;4060;49.186;9.226;2023-07-28T03:59:23;4.50;;;4.10;;
7253;SDS011;4060;49.186;9.226;2023-07-28T04:01:54;3.97;;;3.55;;
7253;SDS011;4060;49.186;9.226;2023-07-28T04:04:24;4.13;;;3.72;;
7253;SDS011;4060;49.186;9.226;2023-07-28T04:06:54;4.30;;;3.90;;
7253;SDS011;4060;49.186;9.226;2023-07-28T04:09:24;4.05;;;3.65;;
7253;SDS011;4060;49.186;9.226;2023-07-28T04:11:55;4.35;;;3.95;;
7253;SDS011;4060;49.186;9.226;2023-07-28T04:14:28;4.10;;;3.70;;
7253;SDS011;4060;49.186;9.226;2023-07-28T04:16:58;5.03;;;4.03;;
7253;SDS011;4060;49.186;9.226;2023-07-28T04:19:28;4.20;;;3.63;;
7253;SDS011;4060;49.186;9.226;2023-07-28T04:21:58;6.88;;;4.18;;
7253;SDS011;4060;49.186;9.226;2023-07-28T04:24:28;3.70;;;3.40;;
7253;SDS011;4060;49.186;9.226;2023-07-28T04:26:58;4.90;;;3.67;;
7253;SDS011;4060;49.186;9.226;2023-07-28T04:29:29;4.13;;;3.72;;
7253;SDS011;4060;49.186;9.226;2023-07-28T04:31:59;4.88;;;3.50;;
7253;SDS011;4060;49.186;9.226;2023-07-28T04:34:29;3.50;;;3.20;;
7253;SDS011;4060;49.186;9.226;2023-07-28T04:37:01;4.13;;;3.72;;
7253;SDS011;4060;49.186;9.226;2023-07-28T04:39:32;4.50;;;4.10;;
7253;SDS011;4060;49.186;9.226;2023-07-28T04:42:02;3.63;;;3.28;;
7253;SDS011;4060;49.186;9.226;2023-07-28T04:44:34;4.13;;;3.60;;
7253;SDS011;4060;49.186;9.226;2023-07-28T04:47:06;4.63;;;3.55;;
7253;SDS011;4060;49.186;9.226;2023-07-28T04:49:37;4.55;;;3.92;;
7253;SDS011;4060;49.186;9.226;2023-07-28T04:52:07;4.25;;;3.83;;
7253;SDS011;4060;49.186;9.226;2023-07-28T04:54:37;4.40;;;3.42;;
7253;SDS011;4060;49.186;9.226;2023-07-28T04:57:08;3.95;;;3.50;;
7253;SDS011;4060;49.186;9.226;2023-07-28T04:59:43;3.60;;;3.30;;
7253;SDS011;4060;49.186;9.226;2023-07-28T05:02:13;4.05;;;3.65;;
7253;SDS011;4060;49.186;9.226;2023-07-28T05:04:43;3.75;;;3.45;;
7253;SDS011;4060;49.186;9.226;2023-07-28T05:07:14;3.58;;;3.28;;
7253;SDS011;4060;49.186;9.226;2023-07-28T05:09:44;3.80;;;3.50;;
7253;SDS011;4060;49.186;9.226;2023-07-28T05:12:13;4.45;;;4.05;;
7253;SDS011;4060;49.186;9.226;2023-07-28T05:14:45;4.05;;;3.75;;
7253;SDS011;4060;49.186;9.226;2023-07-28T05:17:15;4.00;;;3.65;;
7253;SDS011;4060;49.186;9.226;2023-07-28T05:19:44;4.88;;;4.32;;
7253;SDS011;4060;49.186;9.226;2023-07-28T05:22:14;6.50;;;4.75;;
7253;SDS011;4060;49.186;9.226;2023-07-28T05:24:45;4.75;;;4.35;;
7253;SDS011;4060;49.186;9.226;2023-07-28T05:27:15;7.10;;;3.70;;
7253;SDS011;4060;49.186;9.226;2023-07-28T05:29:47;5.15;;;4.05;;
7253;SDS011;4060;49.186;9.226;2023-07-28T05:32:18;4.70;;;3.83;;
7253;SDS011;4060;49.186;9.226;2023-07-28T05:34:48;5.65;;;4.00;;
7253;SDS011;4060;49.186;9.226;2023-07-28T05:37:19;5.07;;;3.65;;
7253;SDS011;4060;49.186;9.226;2023-07-28T05:39:55;5.60;;;3.97;;
7253;SDS011;4060;49.186;9.226;2023-07-28T05:42:26;4.82;;;3.90;;
7253;SDS011;4060;49.186;9.226;2023-07-28T05:44:57;6.22;;;4.30;;
7253;SDS011;4060;49.186;9.226;2023-07-28T05:47:27;4.75;;;3.25;;
7253;SDS011;4060;49.186;9.226;2023-07-28T05:49:57;4.78;;;3.80;;
7253;SDS011;4060;49.186;9.226;2023-07-28T05:52:27;4.53;;;3.63;;
7253;SDS011;4060;49.186;9.226;2023-07-28T05:54:56;4.18;;;3.60;;
7253;SDS011;4060;49.186;9.226;2023-07-28T05:57:26;5.47;;;3.30;;
7253;SDS011;4060;49.186;9.226;2023-07-28T05:59:57;4.03;;;3.45;;
7253;SDS011;4060;49.186;9.226;2023-07-28T06:02:27;5.57;;;3.30;;
7253;SDS011;4060;49.186;9.226;2023-07-28T06:04:57;3.80;;;3.47;;
7253;SDS011;4060;49.186;9.226;2023-07-28T06:07:27;5.10;;;3.35;;
7253;SDS011;4060;49.186;9.226;2023-07-28T06:09:57;5.03;;;4.03;;
7253;SDS011;4060;49.186;9.226;2023-07-28T06:12:27;4.25;;;3.85;;
7253;SDS011;4060;49.186;9.226;2023-07-28T06:14:58;6.13;;;3.55;;
7253;SDS011;4060;49.186;9.226;2023-07-28T06:17:28;4.90;;;3.30;;
7253;SDS011;4060;49.186;9.226;2023-07-28T06:20:00;3.78;;;3.45;;
7253;SDS011;4060;49.186;9.226;2023-07-28T06:22:30;4.75;;;4.28;;
7253;SDS011;4060;49.186;9.226;2023-07-28T06:25:00;5.35;;;4.13;;
7253;SDS011;4060;49.186;9.226;2023-07-28T06:27:30;5.82;;;4.05;;
7253;SDS011;4060;49.186;9.226;2023-07-28T06:30:02;4.97;;;4.40;;
7253;SDS011;4060;49.186;9.226;2023-07-28T06:32:32;4.75;;;4.32;;
7253;SDS011;4060;49.186;9.226;2023-07-28T06:35:02;5.57;;;5.07;;
7253;SDS011;4060;49.186;9.226;2023-07-28T06:37:33;8.20;;;7.40;;
7253;SDS011;4060;49.186;9.226;2023-07-28T06:40:03;7.57;;;6.82;;
7253;SDS011;4060;49.186;9.226;2023-07-28T06:42:35;6.93;;;6.22;;
7253;SDS011;4060;49.186;9.226;2023-07-28T06:45:07;7.43;;;6.78;;
7253;SDS011;4060;49.186;9.226;2023-07-28T06:47:37;7.30;;;6.70;;
7253;SDS011;4060;49.186;9.226;2023-07-28T06:50:08;8.70;;;7.75;;
7253;SDS011;4060;49.186;9.226;2023-07-28T06:52:38;7.22;;;6.63;;
7253;SDS011;4060;49.186;9.226;2023-07-28T06:55:08;7.80;;;7.10;;
7253;SDS011;4060;49.186;9.226;2023-07-28T06:57:38;7.20;;;6.60;;
7253;SDS011;4060;49.186;9.226;2023-07-28T07:00:11;5.88;;;5.38;;
7253;SDS011;4060;49.186;9.226;2023-07-28T07:02:41;5.88;;;5.38;;
7253;SDS011;4060;49.186;9.226;2023-07-28T07:05:11;5.20;;;4.80;;
7253;SDS011;4060;49.186;9.226;2023-07-28T07:07:42;4.95;;;4.55;;
7253;SDS011;4060;49.186;9.226;2023-07-28T07:10:13;4.28;;;3.90;;
7253;SDS011;4060;49.186;9.226;2023-07-28T07:12:43;3.40;;;2.60;;
7253;SDS011;4060;49.186;9.226;2023-07-28T07:15:14;3.95;;;3.00;;
7253;SDS011;4060;49.186;9.226;2023-07-28T07:17:44;3.15;;;2.85;;
7253;SDS011;4060;49.186;9.226;2023-07-28T07:20:14;2.55;;;2.35;;
7253;SDS011;4060;49.186;9.226;2023-07-28T07:22:46;2.40;;;2.20;;
7253;SDS011;4060;49.186;9.226;2023-07-28T07:25:15;3.50;;;2.83;;
7253;SDS011;4060;49.186;9.226;2023-07-28T07:27:46;1.83;;;1.63;;
7253;SDS011;4060;49.186;9.226;2023-07-28T07:30:18;3.35;;;2.47;;
7253;SDS011;4060;49.186;9.226;2023-07-28T07:32:48;2.22;;;2.05;;
7253;SDS011;4060;49.186;9.226;2023-07-28T07:35:19;2.20;;;2.00;;
7253;SDS011;4060;49.186;9.226;2023-07-28T07:37:53;2.22;;;1.70;;
7253;SDS011;4060;49.186;9.226;2023-07-28T07:40:23;1.48;;;1.38;;
7253;SDS011;4060;49.186;9.226;2023-07-28T07:42:53;3.42;;;1.70;;
7253;SDS011;4060;49.186;9.226;2023-07-28T07:45:28;1.65;;;1.55;;
7253;SDS011;4060;49.186;9.226;2023-07-28T07:47:59;1.83;;;1.52;;
7253;SDS011;4060;49.186;9.226;2023-07-28T07:50:29;1.55;;;1.45;;
7253;SDS011;4060;49.186;9.226;2023-07-28T07:52:59;1.95;;;1.80;;
7253;SDS011;4060;49.186;9.226;2023-07-28T07:55:29;1.70;;;1.48;;
7253;SDS011;4060;49.186;9.226;2023-07-28T07:58:01;1.70;;;1.60;;
7253;SDS011;4060;49.186;9.226;2023-07-28T08:00:35;1.90;;;1.70;;
7253;SDS011;4060;49.186;9.226;2023-07-28T08:03:06;2.17;;;1.60;;
7253;SDS011;4060;49.186;9.226;2023-07-28T08:05:36;2.22;;;2.03;;
7253;SDS011;4060;49.186;9.226;2023-07-28T08:08:06;2.97;;;1.70;;
7253;SDS011;4060;49.186;9.226;2023-07-28T08:10:36;2.05;;;1.75;;
7253;SDS011;4060;49.186;9.226;2023-07-28T08:13:07;3.20;;;2.00;;
7253;SDS011;4060;49.186;9.226;2023-07-28T08:15:41;2.35;;;2.00;;
7253;SDS011;4060;49.186;9.226;2023-07-28T08:18:11;1.73;;;1.60;;
7253;SDS011;4060;49.186;9.226;2023-07-28T08:20:41;2.95;;;1.90;;
7253;SDS011;4060;49.186;9.226;2023-07-28T08:23:11;2.03;;;1.83;;
7253;SDS011;4060;49.186;9.226;2023-07-28T08:25:41;2.33;;;1.90;;
7253;SDS011;4060;49.186;9.226;2023-07-28T08:28:11;2.35;;;1.95;;
7253;SDS011;4060;49.186;9.226;2023-07-28T08:30:43;1.95;;;1.60;;
7253;SDS011;4060;49.186;9.226;2023-07-28T08:33:13;2.30;;;2.10;;
7253;SDS011;4060;49.186;9.226;2023-07-28T08:35:42;1.88;;;1.70;;
7253;SDS011;4060;49.186;9.226;2023-07-28T08:38:12;2.10;;;1.90;;
7253;SDS011;4060;49.186;9.226;2023-07-28T08:40:43;3.05;;;2.30;;
7253;SDS011;4060;49.186;9.226;2023-07-28T08:43:13;2.17;;;1.98;;
7253;SDS011;4060;49.186;9.226;2023-07-28T08:45:44;2.33;;;2.13;;
7253;SDS011;4060;49.186;9.226;2023-07-28T08:48:14;2.33;;;2.13;;
7253;SDS011;4060;49.186;9.226;2023-07-28T08:50:43;2.50;;;2.30;;
7253;SDS011;4060;49.186;9.226;2023-07-28T08:53:13;3.60;;;1.92;;
7253;SDS011;4060;49.186;9.226;2023-07-28T08:55:43;1.80;;;1.70;;
7253;SDS011;4060;49.186;9.226;2023-07-28T08:58:18;2.55;;;1.77;;
7253;SDS011;4060;49.186;9.226;2023-07-28T09:00:52;3.28;;;1.70;;
7253;SDS011;4060;49.186;9.226;2023-07-28T09:03:21;2.20;;;2.00;;
7253;SDS011;4060;49.186;9.226;2023-07-28T09:05:54;2.30;;;2.10;;
7253;SDS011;4060;49.186;9.226;2023-07-28T09:08:30;3.08;;;2.35;;
7253;SDS011;4060;49.186;9.226;2023-07-28T09:11:01;2.78;;;1.98;;
7253;SDS011;4060;49.186;9.226;2023-07-28T09:13:38;2.38;;;2.17;;
7253;SDS011;4060;49.186;9.226;2023-07-28T09:16:20;2.05;;;1.95;;
7253;SDS011;4060;49.186;9.226;2023-07-28T09:18:51;2.90;;;2.70;;
7253;SDS011;4060;49.186;9.226;2023-07-28T09:21:35;2.42;;;2.28;;
7253;SDS011;4060;49.186;9.226;2023-07-28T09:24:08;2.67;;;2.47;;
7253;SDS011;4060;49.186;9.226;2023-07-28T09:26:39;2.33;;;2.13;;
7253;SDS011;4060;49.186;9.226;2023-07-28T09:29:11;3.08;;;2.45;;
7253;SDS011;4060;49.186;9.226;2023-07-28T09:31:47;2.47;;;2.28;;
7253;SDS011;4060;49.186;9.226;2023-07-28T09:34:24;2.53;;;2.33;;
7253;SDS011;4060;49.186;9.226;2023-07-28T09:36:54;2.75;;;2.55;;
7253;SDS011;4060;49.186;9.226;2023-07-28T09:39:25;2.70;;;2.50;;
7253;SDS011;4060;49.186;9.226;2023-07-28T09:41:55;2.67;;;2.47;;
7253;SDS011;4060;49.186;9.226;2023-07-28T09:44:26;2.78;;;2.58;;
7253;SDS011;4060;49.186;9.226;2023-07-28T09:46:58;2.20;;;2.10;;
7253;SDS011;4060;49.186;9.226;2023-07-28T09:49:28;2.40;;;2.20;;
7253;SDS011;4060;49.186;9.226;2023-07-28T09:52:05;3.15;;;2.35;;
7253;SDS011;4060;49.186;9.226;2023-07-28T09:54:39;2.78;;;2.58;;
7253;SDS011;4060;49.186;9.226;2023-07-28T09:57:11;1.73;;;1.63;;
7253;SDS011;4060;49.186;9.226;2023-07-28T09:59:41;2.30;;;2.10;;
7253;SDS011;4060;49.186;9.226;2023-07-28T10:02:17;2.50;;;2.30;;
7253;SDS011;4060;49.186;9.226;2023-07-28T10:04:47;2.35;;;2.22;;
7253;SDS011;4060;49.186;9.226;2023-07-28T10:07:17;2.30;;;2.15;;
7253;SDS011;4060;49.186;9.226;2023-07-28T10:09:47;2.13;;;1.95;;
7253;SDS011;4060;49.186;9.226;2023-07-28T10:12:24;2.17;;;1.85;;
7253;SDS011;4060;49.186;9.226;2023-07-28T10:15:02;2.58;;;2.38;;
7253;SDS011;4060;49.186;9.226;2023-07-28T10:17:34;2.45;;;2.13;;
7253;SDS011;4060;49.186;9.226;2023-07-28T10:20:05;2.20;;;2.00;;
7253;SDS011;4060;49.186;9.226;2023-07-28T10:23:02;2.08;;;1.73;;
7253;SDS011;4060;49.186;9.226;2023-07-28T10:25:39;2.50;;;2.30;;
7253;SDS011;4060;49.186;9.226;2023-07-28T10:30:55;2.28;;;2.08;;
7253;SDS011;4060;49.186;9.226;2023-07-28T10:33:28;2.00;;;1.90;;
7253;SDS011;4060;49.186;9.226;2023-07-28T10:35:59;1.65;;;1.55;;
7253;SDS011;4060;49.186;9.226;2023-07-28T10:38:40;2.35;;;1.77;;
7253;SDS011;4060;49.186;9.226;2023-07-28T10:41:11;1.55;;;1.45;;
7253;SDS011;4060;49.186;9.226;2023-07-28T10:43:43;2.50;;;1.52;;
7253;SDS011;4060;49.186;9.226;2023-07-28T10:46:16;1.98;;;1.77;;
7253;SDS011;4060;49.186;9.226;2023-07-28T10:48:51;2.22;;;1.80;;
7253;SDS011;4060;49.186;9.226;2023-07-28T10:51:21;2.22;;;2.03;;
7253;SDS011;4060;49.186;9.226;2023-07-28T10:53:55;1.80;;;1.70;;
7253;SDS011;4060;49.186;9.226;2023-07-28T10:56:26;2.08;;;1.95;;
7253;SDS011;4060;49.186;9.226;2023-07-28T10:58:57;1.88;;;1.77;;
7253;SDS011;4060;49.186;9.226;2023-07-28T11:01:31;2.28;;;1.67;;
7253;SDS011;4060;49.186;9.226;2023-07-28T11:04:09;1.88;;;1.70;;
7253;SDS011;4060;49.186;9.226;2023-07-28T11:06:40;1.65;;;1.55;;
7253;SDS011;4060;49.186;9.226;2023-07-28T11:09:12;2.45;;;1.75;;
7253;SDS011;4060;49.186;9.226;2023-07-28T11:11:43;1.60;;;1.50;;
7253;SDS011;4060;49.186;9.226;2023-07-28T11:14:15;1.50;;;1.40;;
7253;SDS011;4060;49.186;9.226;2023-07-28T11:16:46;1.70;;;1.60;;
7253;SDS011;4060;49.186;9.226;2023-07-28T11:19:20;2.40;;;1.42;;
7253;SDS011;4060;49.186;9.226;2023-07-28T11:21:52;1.42;;;1.33;;
7253;SDS011;4060;49.186;9.226;2023-07-28T11:24:24;1.63;;;1.52;;
7253;SDS011;4060;49.186;9.226;2023-07-28T11:26:57;3.05;;;1.52;;
7253;SDS011;4060;49.186;9.226;2023-07-28T11:29:27;1.90;;;1.70;;
7253;SDS011;4060;49.186;9.226;2023-07-28T11:31:58;1.83;;;1.48;;
7253;SDS011;4060;49.186;9.226;2023-07-28T11:34:30;1.65;;;1.55;;
7253;SDS011;4060;49.186;9.226;2023-07-28T11:37:05;1.60;;;1.50;;
7253;SDS011;4060;49.186;9.226;2023-07-28T11:39:35;1.50;;;1.40;;
7253;SDS011;4060;49.186;9.226;2023-07-28T11:42:05;1.50;;;1.35;;
7253;SDS011;4060;49.186;9.226;2023-07-28T11:44:36;1.52;;;1.42;;
7253;SDS011;4060;49.186;9.226;2023-07-28T11:47:07;1.08;;;0.95;;
7253;SDS011;4060;49.186;9.226;2023-07-28T11:49:45;1.13;;;1.02;;
7253;SDS011;4060;49.186;9.226;2023-07-28T11:52:19;1.50;;;1.40;;
7253;SDS011;4060;49.186;9.226;2023-07-28T11:54:49;1.77;;;1.30;;
7253;SDS011;4060;49.186;9.226;2023-07-28T11:57:21;2.08;;;1.55;;
7253;SDS011;4060;49.186;9.226;2023-07-28T11:59:54;1.40;;;1.30;;
7253;SDS011;4060;49.186;9.226;2023-07-28T12:02:24;1.50;;;1.27;;
7253;SDS011;4060;49.186;9.226;2023-07-28T12:04:58;1.63;;;1.30;;
7253;SDS011;4060;49.186;9.226;2023-07-28T12:07:31;1.40;;;1.00;;
7253;SDS011;4060;49.186;9.226;2023-07-28T12:10:03;1.30;;;1.20;;
7253;SDS011;4060;49.186;9.226;2023-07-28T12:12:39;1.23;;;1.13;;
7253;SDS011;4060;49.186;9.226;2023-07-28T12:15:21;2.00;;;1.10;;
7253;SDS011;4060;49.186;9.226;2023-07-28T12:18:01;1.00;;;0.90;;
7253;SDS011;4060;49.186;9.226;2023-07-28T12:20:38;1.10;;;1.00;;
7253;SDS011;4060;49.186;9.226;2023-07-28T12:23:13;1.42;;;0.93;;
7253;SDS011;4060;49.186;9.226;2023-07-28T12:25:44;1.60;;;1.30;;
7253;SDS011;4060;49.186;9.226;2023-07-28T12:28:14;1.50;;;1.40;;
7253;SDS011;4060;49.186;9.226;2023-07-28T12:30:43;1.30;;;1.20;;
7253;SDS011;4060;49.186;9.226;2023-07-28T12:33:15;1.98;;;1.50;;
7253;SDS011;4060;49.186;9.226;2023-07-28T12:35:47;1.48;;;1.38;;
7253;SDS011;4060;49.186;9.226;2023-07-28T12:38:17;1.90;;;1.60;;
7253;SDS011;4060;49.186;9.226;2023-07-28T12:40:47;1.60;;;1.50;;
7253;SDS011;4060;49.186;9.226;2023-07-28T12:43:18;1.90;;;1.80;;
7253;SDS011;4060;49.186;9.226;2023-07-28T12:45:48;1.60;;;1.50;;
7253;SDS011;4060;49.186;9.226;2023-07-28T12:48:19;1.73;;;1.60;;
7253;SDS011;4060;49.186;9.226;2023-07-28T12:50:51;2.03;;;1.52;;
7253;SDS011;4060;49.186;9.226;2023-07-28T12:53:21;1.67;;;1.58;;
7253;SDS011;4060;49.186;9.226;2023-07-28T12:55:52;1.80;;;1.70;;
7253;SDS011;4060;49.186;9.226;2023-07-28T12:58:22;1.73;;;1.63;;
7253;SDS011;4060;49.186;9.226;2023-07-28T13:00:53;1.95;;;1.80;;
7253;SDS011;4060;49.186;9.226;2023-07-28T13:03:24;3.92;;;1.77;;
7253;SDS011;4060;49.186;9.226;2023-07-28T13:05:57;1.95;;;1.85;;
7253;SDS011;4060;49.186;9.226;2023-07-28T13:08:27;1.98;;;1.83;;
7253;SDS011;4060;49.186;9.226;2023-07-28T13:10:57;1.83;;;1.67;;
7253;SDS011;4060;49.186;9.226;2023-07-28T13:13:27;1.95;;;1.85;;
7253;SDS011;4060;49.186;9.226;2023-07-28T13:15:57;2.75;;;2.10;;
7253;SDS011;4060;49.186;9.226;2023-07-28T13:18:32;2.10;;;1.90;;
7253;SDS011;4060;49.186;9.226;2023-07-28T13:21:04;2.65;;;2.03;;
7253;SDS011;4060;49.186;9.226;2023-07-28T13:23:34;3.28;;;2.25;;
7253;SDS011;4060;49.186;9.226;2023-07-28T13:26:04;2.10;;;1.90;;
7253;SDS011;4060;49.186;9.226;2023-07-28T13:28:34;2.50;;;2.30;;
7253;SDS011;4060;49.186;9.226;2023-07-28T13:31:05;3.72;;;2.33;;
7253;SDS011;4060;49.186;9.226;2023-07-28T13:33:35;2.88;;;2.20;;
7253;SDS011;4060;49.186;9.226;2023-07-28T13:36:07;3.63;;;2.55;;
7253;SDS011;4060;49.186;9.226;2023-07-28T13:38:37;2.38;;;1.98;;
7253;SDS011;4060;49.186;9.226;2023-07-28T13:41:08;2.70;;;1.98;;
7253;SDS011;4060;49.186;9.226;2023-07-28T13:43:39;3.28;;;2.10;;
7253;SDS011;4060;49.186;9.226;2023-07-28T13:46:09;2.63;;;2.10;;
7253;SDS011;4060;49.186;9.226;2023-07-28T13:48:39;3.35;;;2.20;;
7253;SDS011;4060;49.186;9.226;2023-07-28T13:51:11;2.53;;;2.25;;
7253;SDS011;4060;49.186;9.226;2023-07-28T13:53:40;2.70;;;2.50;;
7253;SDS011;4060;49.186;9.226;2023-07-28T13:56:10;2.75;;;2.50;;
7253;SDS011;4060;49.186;9.226;2023-07-28T13:58:40;3.63;;;2.63;;
7253;SDS011;4060;49.186;9.226;2023-07-28T14:01:09;2.33;;;2.10;;
7253;SDS011;4060;49.186;9.226;2023-07-28T14:03:41;2.50;;;2.20;;
7253;SDS011;4060;49.186;9.226;2023-07-28T14:06:14;4.07;;;2.28;;
7253;SDS011;4060;49.186;9.226;2023-07-28T14:08:44;2.60;;;2.40;;
7253;SDS011;4060;49.186;9.226;2023-07-28T14:11:14;2.95;;;2.65;;
7253;SDS011;4060;49.186;9.226;2023-07-28T14:13:44;2.97;;;2.50;;
7253;SDS011;4060;49.186;9.226;2023-07-28T14:16:13;2.72;;;2.40;;
7253;SDS011;4060;49.186;9.226;2023-07-28T14:18:43;2.83;;;2.50;;
7253;SDS011;4060;49.186;9.226;2023-07-28T14:21:16;2.65;;;2.40;;
7253;SDS011;4060;49.186;9.226;2023-07-28T14:23:48;3.47;;;2.40;;
7253;SDS011;4060;49.186;9.226;2023-07-28T14:26:18;3.08;;;2.40;;
7253;SDS011;4060;49.186;9.226;2023-07-28T14:28:49;2.75;;;2.50;;
7253;SDS011;4060;49.186;9.226;2023-07-28T14:31:19;3.13;;;2.70;;
7253;SDS011;4060;49.186;9.226;2023-07-28T14:33:49;2.70;;;2.50;;
7253;SDS011;4060;49.186;9.226;2023-07-28T14:36:20;3.00;;;2.70;;
7253;SDS011;4060;49.186;9.226;2023-07-28T14:38:50;3.40;;;2.92;;
7253;SDS011;4060;49.186;9.226;2023-07-28T14:41:20;3.30;;;3.00;;
7253;SDS011;4060;49.186;9.226;2023-07-28T14:43:50;3.00;;;2.70;;
7253;SDS011;4060;49.186;9.226;2023-07-28T14:46:20;3.13;;;2.78;;
7253;SDS011;4060;49.186;9.226;2023-07-28T14:48:51;4.45;;;3.17;;
7253;SDS011;4060;49.186;9.226;2023-07-28T14:51:23;3.83;;;2.85;;
7253;SDS011;4060;49.186;9.226;2023-07-28T14:53:53;3.42;;;3.05;;
7253;SDS011;4060;49.186;9.226;2023-07-28T14:56:23;3.58;;;3.20;;
7253;SDS011;4060;49.186;9.226;2023-07-28T14:58:54;3.28;;;2.90;;
7253;SDS011;4060;49.186;9.226;2023-07-28T15:01:24;3.75;;;3.45;;
7253;SDS011;4060;49.186;9.226;2023-07-28T15:03:54;3.67;;;3.38;;
7253;SDS011;4060;49.186;9.226;2023-07-28T15:06:27;4.07;;;3.33;;
7253;SDS011;4060;49.186;9.226;2023-07-28T15:08:57;3.22;;;2.92;;
7253;SDS011;4060;49.186;9.226;2023-07-28T15:11:27;7.38;;;3.97;;
7253;SDS011;4060;49.186;9.226;2023-07-28T15:13:57;4.03;;;3.55;;
7253;SDS011;4060;49.186;9.226;2023-07-28T15:16:29;3.75;;;2.50;;
7253;SDS011;4060;49.186;9.226;2023-07-28T15:18:58;2.75;;;2.55;;
7253;SDS011;4060;49.186;9.226;2023-07-28T15:21:30;3.53;;;2.65;;
7253;SDS011;4060;49.186;9.226;2023-07-28T15:23:59;3.17;;;2.78;;
7253;SDS011;4060;49.186;9.226;2023-07-28T15:26:29;2.75;;;2.53;;
7253;SDS011;4060;49.186;9.226;2023-07-28T15:29:01;3.10;;;2.72;;
7253;SDS011;4060;49.186;9.226;2023-07-28T15:31:31;2.30;;;2.10;;
7253;SDS011;4060;49.186;9.226;2023-07-28T15:34:01;2.42;;;2.22;;
7253;SDS011;4060;49.186;9.226;2023-07-28T15:36:33;2.75;;;2.45;;
7253;SDS011;4060;49.186;9.226;2023-07-28T15:39:02;2.85;;;2.55;;
7253;SDS011;4060;49.186;9.226;2023-07-28T15:41:33;3.28;;;2.50;;
7253;SDS011;4060;49.186;9.226;2023-07-28T15:44:03;2.45;;;2.25;;